createdAt,value
2019-02-17T00:01:05.391Z,95785.42
2019-02-17T00:03:34.226Z,95784.97
2019-02-17T00:06:03.106Z,95784.73
2019-02-17T00:08:31.971Z,95774.80
2019-02-17T00:11:00.567Z,95767.95
2019-02-17T00:13:29.155Z,95774.42
2019-02-17T00:15:57.739Z,95771.82
2019-02-17T00:18:26.332Z,95775.69
2019-02-17T00:20:55.177Z,95770.66
2019-02-17T00:23:23.848Z,95779.02
2019-02-17T00:25:52.684Z,95774.76
2019-02-17T00:28:21.294Z,95779.02
2019-02-17T00:30:50.096Z,95769.24
2019-02-17T00:33:18.744Z,95775.55
2019-02-17T00:35:47.798Z,95776.11
2019-02-17T00:38:16.376Z,95770.66
2019-02-17T00:40:44.956Z,95768.77
2019-02-17T00:43:13.552Z,95772.59
2019-02-17T00:45:42.146Z,95774.78
2019-02-17T00:48:10.707Z,95776.73
2019-02-17T00:50:39.616Z,95769.80
2019-02-17T00:53:08.182Z,95774.97
2019-02-17T00:55:36.858Z,95770.99
2019-02-17T00:58:05.440Z,95769.13
2019-02-17T01:00:34.066Z,95769.32
2019-02-17T01:03:02.655Z,95769.59
2019-02-17T01:05:31.259Z,95766.50
2019-02-17T01:08:00.098Z,95767.34
2019-02-17T01:10:28.708Z,95764.13
2019-02-17T01:12:57.533Z,95768.94
2019-02-17T01:15:26.119Z,95767.80
2019-02-17T01:17:54.949Z,95770.43
2019-02-17T01:20:23.765Z,95774.81
2019-02-17T01:22:52.593Z,95771.51
2019-02-17T01:25:21.191Z,95767.42
2019-02-17T01:27:49.759Z,95765.56
2019-02-17T01:30:18.593Z,95764.41
2019-02-17T01:32:47.243Z,95766.25
2019-02-17T01:35:15.800Z,95768.92
2019-02-17T01:37:44.398Z,95764.30
2019-02-17T01:40:13.121Z,95765.34
2019-02-17T01:42:41.794Z,95762.42
2019-02-17T01:45:10.566Z,95764.00
2019-02-17T01:47:39.175Z,95761.81
2019-02-17T01:50:08.017Z,95757.17
2019-02-17T01:52:36.857Z,95756.56
2019-02-17T01:55:05.557Z,95755.45
2019-02-17T01:57:34.430Z,95766.47
2019-02-17T02:00:03.208Z,95759.20
2019-02-17T02:02:32.050Z,95754.38
2019-02-17T02:05:00.601Z,95750.24
2019-02-17T02:07:29.467Z,95749.23
2019-02-17T02:09:58.049Z,95748.37
2019-02-17T02:12:26.883Z,95746.13
2019-02-17T02:14:55.456Z,95741.59
2019-02-17T02:17:24.073Z,95736.84
2019-02-17T02:19:52.675Z,95740.27
2019-02-17T02:22:21.586Z,95732.69
2019-02-17T02:24:50.199Z,95735.36
2019-02-17T02:27:18.770Z,95731.70
2019-02-17T02:29:47.357Z,95728.70
2019-02-17T02:32:16.265Z,95728.23
2019-02-17T02:34:44.888Z,95726.16
2019-02-17T02:37:13.592Z,95721.80
2019-02-17T02:39:42.183Z,95718.54
2019-02-17T02:42:11.026Z,95712.53
2019-02-17T02:44:40.072Z,95707.28
2019-02-17T02:47:08.770Z,95711.72
2019-02-17T02:49:37.377Z,95711.44
2019-02-17T02:52:05.984Z,95704.40
2019-02-17T02:54:34.712Z,95703.82
2019-02-17T02:57:03.611Z,95703.53
2019-02-17T02:59:32.953Z,95703.73
2019-02-17T03:02:01.543Z,95703.90
2019-02-17T03:04:30.266Z,95703.69
2019-02-17T03:07:01.368Z,95698.50
2019-02-17T03:09:29.969Z,95695.61
2019-02-17T03:11:58.642Z,95694.81
2019-02-17T03:14:27.272Z,95688.75
2019-02-17T03:16:55.890Z,95691.25
2019-02-17T03:19:24.512Z,95689.58
2019-02-17T03:21:53.129Z,95685.69
2019-02-17T03:24:21.737Z,95684.93
2019-02-17T03:26:50.558Z,95676.72
2019-02-17T03:29:19.121Z,95677.42
2019-02-17T03:31:47.952Z,95668.61
2019-02-17T03:34:16.815Z,95674.27
2019-02-17T03:36:45.674Z,95669.31
2019-02-17T03:39:14.319Z,95669.13
2019-02-17T03:41:42.925Z,95674.56
2019-02-17T03:44:11.566Z,95667.56
2019-02-17T03:46:40.832Z,95666.27
2019-02-17T03:49:09.850Z,95668.82
2019-02-17T03:51:38.506Z,95671.20
2019-02-17T03:54:07.090Z,95666.94
2019-02-17T03:56:35.705Z,95672.59
2019-02-17T03:59:04.487Z,95667.93
2019-02-17T04:01:33.600Z,95665.28
2019-02-17T04:04:02.430Z,95665.56
2019-02-17T04:06:31.097Z,95665.88
2019-02-17T04:09:00.109Z,95662.00
2019-02-17T04:11:29.165Z,95656.29
2019-02-17T04:13:57.796Z,95661.62
2019-02-17T04:16:26.552Z,95659.13
2019-02-17T04:18:55.524Z,95661.60
2019-02-17T04:21:24.534Z,95655.01
2019-02-17T04:23:53.136Z,95658.74
2019-02-17T04:26:21.777Z,95658.45
2019-02-17T04:28:50.651Z,95655.79
2019-02-17T04:31:19.469Z,95656.00
2019-02-17T04:33:48.453Z,95658.85
2019-02-17T04:36:17.113Z,95654.60
2019-02-17T04:38:45.820Z,95646.59
2019-02-17T04:41:14.470Z,95641.77
2019-02-17T04:43:43.323Z,95643.73
2019-02-17T04:46:12.167Z,95640.83
2019-02-17T04:48:40.780Z,95642.90
2019-02-17T04:51:09.436Z,95636.59
2019-02-17T04:53:38.023Z,95631.77
2019-02-17T04:56:06.877Z,95634.94
2019-02-17T04:58:35.722Z,95630.61
2019-02-17T05:01:04.311Z,95632.63
2019-02-17T05:03:33.118Z,95634.21
2019-02-17T05:06:02.100Z,95632.41
2019-02-17T05:08:30.801Z,95628.25
2019-02-17T05:10:59.383Z,95626.63
2019-02-17T05:13:27.949Z,95625.57
2019-02-17T05:15:56.599Z,95624.39
2019-02-17T05:18:25.201Z,95624.02
2019-02-17T05:20:53.776Z,95620.98
2019-02-17T05:23:22.386Z,95620.77
2019-02-17T05:25:51.109Z,95625.47
2019-02-17T05:28:19.788Z,95624.18
2019-02-17T05:30:52.969Z,95616.80
2019-02-17T05:33:19.202Z,95623.19
2019-02-17T05:35:47.811Z,95621.11
2019-02-17T05:38:16.429Z,95620.11
2019-02-17T05:40:44.983Z,95616.16
2019-02-17T05:43:13.589Z,95616.44
2019-02-17T05:45:42.144Z,95613.31
2019-02-17T05:48:10.728Z,95614.88
2019-02-17T05:50:39.303Z,95615.66
2019-02-17T05:53:07.892Z,95616.17
2019-02-17T05:55:36.481Z,95616.47
2019-02-17T05:58:05.060Z,95612.41
2019-02-17T06:00:35.461Z,95612.69
2019-02-17T06:03:04.063Z,95612.59
2019-02-17T06:05:32.651Z,95603.23
2019-02-17T06:08:01.224Z,95605.88
2019-02-17T06:10:29.823Z,95605.88
2019-02-17T06:12:58.420Z,95609.63
2019-02-17T06:15:27.004Z,95615.66
2019-02-17T06:17:55.602Z,95617.94
2019-02-17T06:20:24.169Z,95615.94
2019-02-17T06:22:52.766Z,95614.73
2019-02-17T06:25:21.345Z,95618.94
2019-02-17T06:27:50.036Z,95617.72
2019-02-17T06:30:18.606Z,95615.79
2019-02-17T06:32:47.420Z,95618.04
2019-02-17T06:35:16.031Z,95618.34
2019-02-17T06:37:44.627Z,95620.80
2019-02-17T06:40:13.344Z,95621.31
2019-02-17T06:42:41.918Z,95621.70
2019-02-17T06:45:10.880Z,95632.97
2019-02-17T06:47:39.467Z,95632.52
2019-02-17T06:50:09.195Z,95630.11
2019-02-17T06:52:37.766Z,95630.77
2019-02-17T06:55:38.592Z,95629.33
2019-02-17T06:58:07.425Z,95629.08
2019-02-17T07:00:41.629Z,95627.38
2019-02-17T07:03:10.221Z,95629.10
2019-02-17T07:05:48.151Z,95632.80
2019-02-17T07:08:16.785Z,95622.73
2019-02-17T07:10:45.603Z,95626.22
2019-02-17T07:13:14.282Z,95627.98
2019-02-17T07:15:43.162Z,95626.19
2019-02-17T07:18:11.775Z,95627.67
2019-02-17T07:20:40.360Z,95630.31
2019-02-17T07:23:08.950Z,95631.69
2019-02-17T07:25:37.548Z,95623.17
2019-02-17T07:28:06.379Z,95628.27
2019-02-17T07:30:34.978Z,95623.39
2019-02-17T07:33:03.632Z,95621.91
2019-02-17T07:35:32.258Z,95626.53
2019-02-17T07:38:00.876Z,95624.66
2019-02-17T07:40:29.529Z,95624.77
2019-02-17T07:42:58.151Z,95618.56
2019-02-17T07:45:27.049Z,95621.67
2019-02-17T07:47:55.771Z,95616.89
2019-02-17T07:50:24.632Z,95611.35
2019-02-17T07:52:53.314Z,95616.31
2019-02-17T07:55:21.982Z,95610.02
2019-02-17T07:57:50.593Z,95608.65
2019-02-17T08:00:19.297Z,95601.89
2019-02-17T08:02:49.572Z,95609.11
2019-02-17T08:05:18.267Z,95606.99
2019-02-17T08:07:47.112Z,95604.66
2019-02-17T08:10:15.714Z,95606.52
2019-02-17T08:12:44.311Z,95599.59
2019-02-17T08:15:13.094Z,95591.23
2019-02-17T08:17:41.797Z,95594.58
2019-02-17T08:20:10.502Z,95589.59
2019-02-17T08:22:39.303Z,95592.97
2019-02-17T08:25:08.086Z,95587.78
2019-02-17T08:27:36.696Z,95585.36
2019-02-17T08:30:05.971Z,95585.34
2019-02-17T08:32:34.697Z,95584.67
2019-02-17T08:35:03.304Z,95585.78
2019-02-17T08:37:32.053Z,95582.80
2019-02-17T08:40:00.987Z,95580.28
2019-02-17T08:42:29.739Z,95580.27
2019-02-17T08:44:58.612Z,95574.86
2019-02-17T08:47:27.257Z,95574.86
2019-02-17T08:49:56.067Z,95579.06
2019-02-17T08:52:24.746Z,95577.38
2019-02-17T08:54:53.357Z,95569.74
2019-02-17T08:57:22.313Z,95567.61
2019-02-17T08:59:50.923Z,95565.40
2019-02-17T09:02:19.569Z,95566.24
2019-02-17T09:04:48.132Z,95560.70
2019-02-17T09:07:16.996Z,95553.88
2019-02-17T09:09:45.720Z,95555.84
2019-02-17T09:12:14.783Z,95550.59
2019-02-17T09:14:43.398Z,95540.89
2019-02-17T09:17:12.022Z,95542.97
2019-02-17T09:19:40.606Z,95543.45
2019-02-17T09:22:09.296Z,95538.93
2019-02-17T09:24:37.898Z,95542.30
2019-02-17T09:27:06.808Z,95539.28
2019-02-17T09:29:35.397Z,95540.79
2019-02-17T09:32:04.491Z,95540.75
2019-02-17T09:34:33.361Z,95542.39
2019-02-17T09:37:01.964Z,95537.25
2019-02-17T09:39:30.844Z,95540.01
2019-02-17T09:41:59.466Z,95543.65
2019-02-17T09:44:28.075Z,95545.51
2019-02-17T09:46:56.638Z,95537.73
2019-02-17T09:49:25.489Z,95537.66
2019-02-17T09:51:54.203Z,95537.02
2019-02-17T09:54:23.006Z,95538.31
2019-02-17T09:56:51.626Z,95538.25
2019-02-17T09:59:20.275Z,95532.27
2019-02-17T10:01:49.092Z,95531.08
2019-02-17T10:04:17.758Z,95540.75
2019-02-17T10:06:46.530Z,95538.67
2019-02-17T10:09:15.331Z,95541.91
2019-02-17T10:11:43.915Z,95535.67
2019-02-17T10:14:12.637Z,95540.36
2019-02-17T10:16:41.360Z,95545.94
2019-02-17T10:19:09.951Z,95541.52
2019-02-17T10:21:38.560Z,95540.35
2019-02-17T10:24:07.154Z,95540.89
2019-02-17T10:26:36.040Z,95538.56
2019-02-17T10:29:04.639Z,95535.80
2019-02-17T10:31:33.283Z,95529.61
2019-02-17T10:34:01.869Z,95527.84
2019-02-17T10:36:33.368Z,95529.79
2019-02-17T10:39:01.974Z,95536.14
2019-02-17T10:41:30.588Z,95526.37
2019-02-17T10:43:59.513Z,95531.20
2019-02-17T10:46:28.108Z,95524.27
2019-02-17T10:48:57.021Z,95524.72
2019-02-17T10:51:26.542Z,95536.50
2019-02-17T10:53:55.517Z,95529.27
2019-02-17T10:56:24.111Z,95523.48
2019-02-17T10:58:52.740Z,95516.11
2019-02-17T11:01:21.375Z,95508.69
2019-02-17T11:04:04.621Z,95512.39
2019-02-17T11:06:33.291Z,95510.69
2019-02-17T11:09:02.165Z,95510.75
2019-02-17T11:11:30.845Z,95503.84
2019-02-17T11:13:59.459Z,95503.31
2019-02-17T11:16:28.094Z,95498.39
2019-02-17T11:18:56.712Z,95492.66
2019-02-17T11:21:25.274Z,95493.14
2019-02-17T11:23:53.934Z,95490.52
2019-02-17T11:26:22.517Z,95487.53
2019-02-17T11:28:51.122Z,95487.73
2019-02-17T11:31:19.715Z,95488.63
2019-02-17T11:33:48.619Z,95486.34
2019-02-17T11:36:17.229Z,95484.55
2019-02-17T11:38:45.892Z,95485.94
2019-02-17T11:41:14.542Z,95481.63
2019-02-17T11:43:43.406Z,95478.00
2019-02-17T11:46:12.030Z,95473.73
2019-02-17T11:48:40.613Z,95476.52
2019-02-17T11:51:10.312Z,95473.77
2019-02-17T11:53:38.878Z,95469.67
2019-02-17T11:56:09.061Z,95471.75
2019-02-17T11:58:38.672Z,95461.90
2019-02-17T12:01:07.305Z,95466.09
2019-02-17T12:03:36.022Z,95466.48
2019-02-17T12:06:04.712Z,95462.52
2019-02-17T12:08:33.537Z,95457.63
2019-02-17T12:11:02.132Z,95458.23
2019-02-17T12:13:30.785Z,95451.13
2019-02-17T12:15:59.484Z,95449.64
2019-02-17T12:18:28.085Z,95447.47
2019-02-17T12:21:33.730Z,95436.52
2019-02-17T12:24:30.281Z,95443.50
2019-02-17T12:27:15.719Z,95434.11
2019-02-17T12:29:47.187Z,95435.45
2019-02-17T12:32:16.476Z,95441.12
2019-02-17T12:34:45.064Z,95435.28
2019-02-17T12:37:13.760Z,95442.24
2019-02-17T12:39:42.376Z,95439.39
2019-02-17T12:42:11.246Z,95432.31
2019-02-17T12:44:40.127Z,95432.53
2019-02-17T12:47:08.749Z,95427.55
2019-02-17T12:49:37.345Z,95423.25
2019-02-17T12:52:05.923Z,95430.84
2019-02-17T12:54:34.738Z,95427.22
2019-02-17T12:57:04.070Z,95425.11
2019-02-17T12:59:32.832Z,95422.55
2019-02-17T13:02:01.442Z,95425.30
2019-02-17T13:04:30.060Z,95428.58
2019-02-17T13:06:58.731Z,95423.44
2019-02-17T13:09:27.877Z,95428.41
2019-02-17T13:11:56.490Z,95423.40
2019-02-17T13:14:25.109Z,95425.66
2019-02-17T13:16:53.707Z,95420.98
2019-02-17T13:19:22.371Z,95416.42
2019-02-17T13:21:51.023Z,95411.34
2019-02-17T13:24:19.668Z,95410.70
2019-02-17T13:26:48.275Z,95409.22
2019-02-17T13:29:16.938Z,95416.21
2019-02-17T13:31:45.596Z,95412.55
2019-02-17T13:34:14.378Z,95414.50
2019-02-17T13:36:43.094Z,95416.86
2019-02-17T13:39:11.727Z,95416.94
2019-02-17T13:41:40.333Z,95414.67
2019-02-17T13:44:08.990Z,95413.42
2019-02-17T13:46:37.645Z,95413.14
2019-02-17T13:49:06.319Z,95407.98
2019-02-17T13:51:35.143Z,95409.71
2019-02-17T13:54:03.786Z,95405.21
2019-02-17T13:56:32.659Z,95402.08
2019-02-17T13:59:01.318Z,95405.56
2019-02-17T14:01:30.462Z,95402.23
2019-02-17T14:03:59.083Z,95398.34
2019-02-17T14:06:27.702Z,95397.37
2019-02-17T14:08:56.440Z,95392.58
2019-02-17T14:11:25.125Z,95398.22
2019-02-17T14:13:53.951Z,95390.45
2019-02-17T14:16:22.736Z,95397.31
2019-02-17T14:18:51.330Z,95390.92
2019-02-17T14:21:20.016Z,95387.27
2019-02-17T14:23:48.680Z,95382.43
2019-02-17T14:26:17.270Z,95380.29
2019-02-17T14:28:45.871Z,95384.44
2019-02-17T14:31:14.462Z,95380.42
2019-02-17T14:33:43.058Z,95385.97
2019-02-17T14:36:11.846Z,95384.58
2019-02-17T14:38:40.441Z,95383.33
2019-02-17T14:41:09.087Z,95380.53
2019-02-17T14:43:37.661Z,95382.65
2019-02-17T14:46:06.283Z,95383.73
2019-02-17T14:48:34.882Z,95375.69
2019-02-17T14:51:03.768Z,95377.50
2019-02-17T14:53:32.734Z,95377.73
2019-02-17T14:56:01.479Z,95378.64
2019-02-17T14:58:30.323Z,95378.31
2019-02-17T15:00:59.178Z,95377.38
2019-02-17T15:03:27.755Z,95372.20
2019-02-17T15:05:56.434Z,95369.70
2019-02-17T15:08:25.039Z,95370.38
2019-02-17T15:10:53.759Z,95364.52
2019-02-17T15:13:24.745Z,95367.42
2019-02-17T15:15:52.791Z,95360.94
2019-02-17T15:18:21.507Z,95358.50
2019-02-17T15:20:50.197Z,95358.55
2019-02-17T15:23:18.822Z,95359.94
2019-02-17T15:25:47.510Z,95360.99
2019-02-17T15:28:16.318Z,95358.31
2019-02-17T15:30:45.334Z,95350.14
2019-02-17T15:33:14.298Z,95354.42
2019-02-17T15:35:42.893Z,95345.88
2019-02-17T15:38:11.515Z,95356.44
2019-02-17T15:40:40.200Z,95349.37
2019-02-17T15:43:08.877Z,95347.98
2019-02-17T15:45:37.725Z,95351.89
2019-02-17T15:48:06.305Z,95352.47
2019-02-17T15:50:34.909Z,95348.90
2019-02-17T15:53:03.487Z,95349.89
2019-02-17T15:55:32.086Z,95351.30
2019-02-17T15:58:00.758Z,95345.64
2019-02-17T16:00:29.342Z,95344.77
2019-02-17T16:02:58.027Z,95345.46
2019-02-17T16:05:26.714Z,95333.84
2019-02-17T16:07:55.607Z,95335.13
2019-02-17T16:10:24.216Z,95342.91
2019-02-17T16:12:52.821Z,95338.55
2019-02-17T16:15:22.057Z,95338.19
2019-02-17T16:17:51.019Z,95339.80
2019-02-17T16:20:19.739Z,95340.58
2019-02-17T16:22:48.802Z,95335.73
2019-02-17T16:25:17.433Z,95336.72
2019-02-17T16:27:46.046Z,95336.53
2019-02-17T16:30:15.168Z,95341.00
2019-02-17T16:32:43.849Z,95331.81
2019-02-17T16:35:12.518Z,95340.20
2019-02-17T16:37:41.145Z,95339.67
2019-02-17T16:40:11.363Z,95341.75
2019-02-17T16:42:40.819Z,95349.33
2019-02-17T16:45:10.908Z,95343.48
2019-02-17T16:47:39.703Z,95347.17
2019-02-17T16:50:10.686Z,95347.29
2019-02-17T16:52:39.637Z,95349.59
2019-02-17T16:55:09.663Z,95341.78
2019-02-17T16:57:38.432Z,95349.34
2019-02-17T17:00:08.565Z,95344.41
2019-02-17T17:02:38.566Z,95353.19
2019-02-17T17:05:08.072Z,95348.31
2019-02-17T17:07:36.726Z,95352.49
2019-02-17T17:10:06.392Z,95353.77
2019-02-17T17:12:37.745Z,95361.88
2019-02-17T17:15:06.685Z,95358.97
2019-02-17T17:17:35.342Z,95365.18
2019-02-17T17:20:04.034Z,95368.35
2019-02-17T17:22:32.655Z,95371.41
2019-02-17T17:25:01.248Z,95373.02
2019-02-17T17:27:29.860Z,95375.40
2019-02-17T17:29:58.439Z,95376.95
2019-02-17T17:32:27.126Z,95376.95
2019-02-17T17:34:58.785Z,95380.07
2019-02-17T17:37:26.425Z,95383.16
2019-02-17T17:39:55.045Z,95382.64
2019-02-17T17:42:23.702Z,95382.53
2019-02-17T17:44:52.304Z,95382.53
2019-02-17T17:47:21.165Z,95382.98
2019-02-17T17:49:49.759Z,95382.98
2019-02-17T17:52:19.063Z,95387.12
2019-02-17T17:54:48.019Z,95385.38
2019-02-17T17:57:17.229Z,95385.38
2019-02-17T17:59:45.893Z,95383.01
2019-02-17T18:02:14.741Z,95377.80
2019-02-17T18:04:43.519Z,95384.16
2019-02-17T18:07:12.182Z,95381.86
2019-02-17T18:09:40.838Z,95378.52
2019-02-17T18:12:09.448Z,95368.66
2019-02-17T18:14:38.062Z,95368.66
2019-02-17T18:17:06.700Z,95374.18
2019-02-17T18:19:35.344Z,95370.98
2019-02-17T18:22:07.592Z,95374.29
2019-02-17T18:24:36.386Z,95372.47
2019-02-17T18:27:05.029Z,95365.13
2019-02-17T18:29:33.716Z,95370.97
2019-02-17T18:32:02.284Z,95371.06
2019-02-17T18:34:30.880Z,95368.94
2019-02-17T18:37:00.551Z,95368.94
2019-02-17T18:39:29.175Z,95367.83
2019-02-17T18:41:57.715Z,95367.83
2019-02-17T18:44:26.286Z,95363.48
2019-02-17T18:46:55.110Z,95365.12
2019-02-17T18:49:23.931Z,95366.53
2019-02-17T18:51:52.554Z,95360.67
2019-02-17T18:54:21.146Z,95360.67
2019-02-17T18:56:49.742Z,95364.46
2019-02-17T18:59:18.381Z,95355.24
2019-02-17T19:01:47.115Z,95355.24
2019-02-17T19:04:15.675Z,95354.63
2019-02-17T19:06:44.504Z,95354.63
2019-02-17T19:09:13.100Z,95355.00
2019-02-17T19:11:41.933Z,95356.15
2019-02-17T19:14:11.250Z,95360.16
2019-02-17T19:16:43.303Z,95357.41
2019-02-17T19:19:12.004Z,95350.63
2019-02-17T19:21:43.979Z,95362.45
2019-02-17T19:24:12.651Z,95362.45
2019-02-17T19:26:41.228Z,95349.36
2019-02-17T19:29:10.203Z,95349.36
2019-02-17T19:31:38.861Z,95349.39
2019-02-17T19:34:07.495Z,95356.92
2019-02-17T19:36:36.055Z,95356.92
2019-02-17T19:39:05.917Z,95355.77
2019-02-17T19:41:34.487Z,95356.69
2019-02-17T19:44:03.091Z,95356.69
2019-02-17T19:46:32.017Z,95361.59
2019-02-17T19:49:00.711Z,95366.86
2019-02-17T19:51:29.321Z,95365.69
2019-02-17T19:53:58.000Z,95365.69
2019-02-17T19:56:26.824Z,95363.41
2019-02-17T19:58:55.406Z,95369.17
2019-02-17T20:01:24.217Z,95376.58
2019-02-17T20:04:12.135Z,95367.92
2019-02-17T20:06:40.661Z,95367.92
2019-02-17T20:09:16.824Z,95372.02
2019-02-17T20:11:45.397Z,95375.14
2019-02-17T20:14:14.301Z,95375.14
2019-02-17T20:16:42.910Z,95384.75
2019-02-17T20:19:11.510Z,95389.78
2019-02-17T20:21:40.103Z,95386.59
2019-02-17T20:24:08.728Z,95393.02
2019-02-17T20:26:37.365Z,95393.02
2019-02-17T20:29:06.073Z,95395.06
2019-02-17T20:31:34.638Z,95392.28
2019-02-17T20:34:03.455Z,95391.16
2019-02-17T20:36:32.059Z,95384.77
2019-02-17T20:39:00.709Z,95396.47
2019-02-17T20:41:29.912Z,95396.47
2019-02-17T20:43:58.532Z,95390.41
2019-02-17T20:46:27.130Z,95400.28
2019-02-17T20:48:55.981Z,95400.28
2019-02-17T20:51:24.580Z,95393.61
2019-02-17T20:53:53.240Z,95398.30
2019-02-17T20:56:21.960Z,95398.30
2019-02-17T20:58:50.838Z,95396.38
2019-02-17T21:01:19.673Z,95400.40
2019-02-17T21:03:48.257Z,95394.96
2019-02-17T21:06:16.929Z,95394.96
2019-02-17T21:08:45.730Z,95393.75
2019-02-17T21:11:14.776Z,95393.50
2019-02-17T21:13:43.363Z,95394.22
2019-02-17T21:16:12.272Z,95390.41
2019-02-17T21:18:40.839Z,95398.20
2019-02-17T21:21:09.772Z,95395.19
2019-02-17T21:23:38.367Z,95385.92
2019-02-17T21:26:07.128Z,95395.16
2019-02-17T21:28:35.887Z,95391.44
2019-02-17T21:31:04.844Z,95391.08
2019-02-17T21:33:33.648Z,95388.38
2019-02-17T21:36:02.360Z,95391.93
2019-02-17T21:38:30.930Z,95384.80
2019-02-17T21:41:08.997Z,95378.96
2019-02-17T21:43:30.090Z,95383.84
2019-02-17T21:45:59.009Z,95387.48
2019-02-17T21:48:27.659Z,95384.94
2019-02-17T21:50:56.536Z,95390.45
2019-02-17T21:53:25.237Z,95392.06
2019-02-17T21:55:53.973Z,95386.34
2019-02-17T21:58:22.640Z,95387.35
2019-02-17T22:00:51.251Z,95383.16
2019-02-17T22:03:19.873Z,95386.75
2019-02-17T22:05:48.525Z,95385.08
2019-02-17T22:08:17.140Z,95385.08
2019-02-17T22:10:45.907Z,95384.02
2019-02-17T22:13:14.604Z,95384.02
2019-02-17T22:15:43.647Z,95382.15
2019-02-17T22:18:12.666Z,95383.96
2019-02-17T22:20:41.280Z,95381.41
2019-02-17T22:23:09.947Z,95386.34
2019-02-17T22:25:38.648Z,95377.88
2019-02-17T22:28:07.363Z,95375.14
2019-02-17T22:30:36.037Z,95377.62
2019-02-17T22:33:04.684Z,95378.08
2019-02-17T22:35:33.291Z,95378.63
2019-02-17T22:38:02.088Z,95376.44
2019-02-17T22:40:30.738Z,95372.22
2019-02-17T22:42:59.343Z,95372.84
2019-02-17T22:45:27.910Z,95373.40
2019-02-17T22:47:56.560Z,95368.13
2019-02-17T22:50:25.207Z,95373.07
2019-02-17T22:52:54.317Z,95372.43
2019-02-17T22:55:22.950Z,95376.09
2019-02-17T22:57:51.604Z,95374.13
2019-02-17T23:00:32.684Z,95372.34
2019-02-17T23:03:01.523Z,95376.80
2019-02-17T23:05:30.222Z,95369.57
2019-02-17T23:07:58.891Z,95376.33
2019-02-17T23:10:27.449Z,95378.09
2019-02-17T23:12:56.326Z,95375.76
2019-02-17T23:15:24.886Z,95372.53
2019-02-17T23:17:53.524Z,95369.73
2019-02-17T23:20:22.186Z,95376.84
2019-02-17T23:22:51.253Z,95369.12
2019-02-17T23:25:20.100Z,95373.00
2019-02-17T23:27:48.748Z,95375.02
2019-02-17T23:30:17.419Z,95379.95
2019-02-17T23:32:46.073Z,95376.56
2019-02-17T23:35:14.894Z,95377.98
2019-02-17T23:37:43.487Z,95377.95
2019-02-17T23:40:12.246Z,95380.59
2019-02-17T23:42:40.912Z,95385.15
2019-02-17T23:45:09.716Z,95385.55
2019-02-17T23:47:38.286Z,95384.28
2019-02-17T23:50:07.130Z,95375.41
2019-02-17T23:52:35.716Z,95382.80
2019-02-17T23:55:04.547Z,95383.69
2019-02-17T23:57:33.480Z,95384.25
